sensor_id;sensor_type;location;lat;lon;timestamp;temperature;humidity
35085;SHT85;21267;51.032;6.998;2023-09-08T00:01:38;19.33;81.51
35085;SHT85;21267;51.032;6.998;2023-09-08T00:04:05;19.24;81.66
35085;SHT85;21267;51.032;6.998;2023-09-08T00:06:33;19.09;82.25
35085;SHT85;21267;51.032;6.998;2023-09-08T00:09:02;19.03;82.37
35085;SHT85;21267;51.032;6.998;2023-09-08T00:11:28;19.08;82.54
35085;SHT85;21267;51.032;6.998;2023-09-08T00:13:55;18.98;82.48
35085;SHT85;21267;51.032;6.998;2023-09-08T00:16:22;18.98;82.64
35085;SHT85;21267;51.032;6.998;2023-09-08T00:18:49;18.96;82.52
35085;SHT85;21267;51.032;6.998;2023-09-08T00:21:16;19.02;82.49
35085;SHT85;21267;51.032;6.998;2023-09-08T00:23:43;18.91;82.76
35085;SHT85;21267;51.032;6.998;2023-09-08T00:26:10;18.77;83.08
35085;SHT85;21267;51.032;6.998;2023-09-08T00:28:37;18.85;83.07
35085;SHT85;21267;51.032;6.998;2023-09-08T00:31:04;18.71;83.31
35085;SHT85;21267;51.032;6.998;2023-09-08T00:33:31;18.77;83.42
35085;SHT85;21267;51.032;6.998;2023-09-08T00:35:58;18.64;83.54
35085;SHT85;21267;51.032;6.998;2023-09-08T00:38:25;18.60;83.73
35085;SHT85;21267;51.032;6.998;2023-09-08T00:40:52;18.63;83.39
35085;SHT85;21267;51.032;6.998;2023-09-08T00:43:19;18.60;83.28
35085;SHT85;21267;51.032;6.998;2023-09-08T00:45:47;18.67;83.24
35085;SHT85;21267;51.032;6.998;2023-09-08T00:48:14;18.74;82.76
35085;SHT85;21267;51.032;6.998;2023-09-08T00:50:41;18.80;82.80
35085;SHT85;21267;51.032;6.998;2023-09-08T00:53:10;18.63;83.20
35085;SHT85;21267;51.032;6.998;2023-09-08T00:55:39;18.55;83.38
35085;SHT85;21267;51.032;6.998;2023-09-08T00:58:06;18.50;83.52
35085;SHT85;21267;51.032;6.998;2023-09-08T01:00:33;18.51;83.39
35085;SHT85;21267;51.032;6.998;2023-09-08T01:03:00;18.57;83.04
35085;SHT85;21267;51.032;6.998;2023-09-08T01:05:28;18.55;83.01
35085;SHT85;21267;51.032;6.998;2023-09-08T01:07:55;18.63;82.65
35085;SHT85;21267;51.032;6.998;2023-09-08T01:10:22;18.64;82.62
35085;SHT85;21267;51.032;6.998;2023-09-08T01:12:49;18.57;82.96
35085;SHT85;21267;51.032;6.998;2023-09-08T01:15:16;18.41;83.33
35085;SHT85;21267;51.032;6.998;2023-09-08T01:17:43;18.40;83.39
35085;SHT85;21267;51.032;6.998;2023-09-08T01:20:18;18.41;83.49
35085;SHT85;21267;51.032;6.998;2023-09-08T01:25:18;18.34;83.45
35085;SHT85;21267;51.032;6.998;2023-09-08T01:27:52;18.37;83.27
35085;SHT85;21267;51.032;6.998;2023-09-08T01:30:20;18.67;82.88
35085;SHT85;21267;51.032;6.998;2023-09-08T01:32:48;18.47;83.38
35085;SHT85;21267;51.032;6.998;2023-09-08T01:35:15;18.37;83.57
35085;SHT85;21267;51.032;6.998;2023-09-08T01:37:47;18.38;83.32
35085;SHT85;21267;51.032;6.998;2023-09-08T01:40:14;18.47;83.14
35085;SHT85;21267;51.032;6.998;2023-09-08T01:42:41;18.45;83.13
35085;SHT85;21267;51.032;6.998;2023-09-08T01:45:08;18.34;83.64
35085;SHT85;21267;51.032;6.998;2023-09-08T01:47:35;18.26;83.58
35085;SHT85;21267;51.032;6.998;2023-09-08T01:50:02;18.16;83.93
35085;SHT85;21267;51.032;6.998;2023-09-08T01:52:29;17.99;84.41
35085;SHT85;21267;51.032;6.998;2023-09-08T01:54:56;18.02;84.53
35085;SHT85;21267;51.032;6.998;2023-09-08T01:57:23;18.00;84.54
35085;SHT85;21267;51.032;6.998;2023-09-08T01:59:50;18.12;84.35
35085;SHT85;21267;51.032;6.998;2023-09-08T02:02:17;18.09;84.36
35085;SHT85;21267;51.032;6.998;2023-09-08T02:04:44;18.14;84.35
35085;SHT85;21267;51.032;6.998;2023-09-08T02:07:12;17.92;84.64
35085;SHT85;21267;51.032;6.998;2023-09-08T02:09:39;17.79;85.52
35085;SHT85;21267;51.032;6.998;2023-09-08T02:12:06;17.79;85.21
35085;SHT85;21267;51.032;6.998;2023-09-08T02:14:33;17.72;85.58
35085;SHT85;21267;51.032;6.998;2023-09-08T02:17:00;17.65;85.93
35085;SHT85;21267;51.032;6.998;2023-09-08T02:19:26;17.63;85.89
35085;SHT85;21267;51.032;6.998;2023-09-08T02:21:54;17.61;85.88
35085;SHT85;21267;51.032;6.998;2023-09-08T02:24:20;17.63;86.06
35085;SHT85;21267;51.032;6.998;2023-09-08T02:26:47;17.79;85.49
35085;SHT85;21267;51.032;6.998;2023-09-08T02:29:14;17.69;85.77
35085;SHT85;21267;51.032;6.998;2023-09-08T02:31:41;17.69;85.76
35085;SHT85;21267;51.032;6.998;2023-09-08T02:34:08;17.59;86.00
35085;SHT85;21267;51.032;6.998;2023-09-08T02:36:35;17.71;85.46
35085;SHT85;21267;51.032;6.998;2023-09-08T02:39:01;17.61;85.73
35085;SHT85;21267;51.032;6.998;2023-09-08T02:41:28;17.48;86.15
35085;SHT85;21267;51.032;6.998;2023-09-08T02:43:55;17.59;86.04
35085;SHT85;21267;51.032;6.998;2023-09-08T02:46:22;17.71;85.72
35085;SHT85;21267;51.032;6.998;2023-09-08T02:48:49;17.59;85.65
35085;SHT85;21267;51.032;6.998;2023-09-08T02:51:16;17.45;86.28
35085;SHT85;21267;51.032;6.998;2023-09-08T02:53:43;17.58;86.03
35085;SHT85;21267;51.032;6.998;2023-09-08T02:56:09;17.47;86.18
35085;SHT85;21267;51.032;6.998;2023-09-08T02:58:36;17.50;86.17
35085;SHT85;21267;51.032;6.998;2023-09-08T03:01:17;17.47;86.13
35085;SHT85;21267;51.032;6.998;2023-09-08T03:03:47;17.41;86.54
35085;SHT85;21267;51.032;6.998;2023-09-08T03:06:19;17.37;86.39
35085;SHT85;21267;51.032;6.998;2023-09-08T03:08:47;17.40;86.39
35085;SHT85;21267;51.032;6.998;2023-09-08T03:11:15;17.44;86.09
35085;SHT85;21267;51.032;6.998;2023-09-08T03:13:42;17.41;86.25
35085;SHT85;21267;51.032;6.998;2023-09-08T03:16:09;17.37;86.38
35085;SHT85;21267;51.032;6.998;2023-09-08T03:18:38;17.28;86.59
35085;SHT85;21267;51.032;6.998;2023-09-08T03:21:05;17.27;86.52
35085;SHT85;21267;51.032;6.998;2023-09-08T03:23:41;17.24;86.60
35085;SHT85;21267;51.032;6.998;2023-09-08T03:26:09;17.27;86.56
35085;SHT85;21267;51.032;6.998;2023-09-08T03:28:37;17.30;86.39
35085;SHT85;21267;51.032;6.998;2023-09-08T03:31:05;17.32;86.37
35085;SHT85;21267;51.032;6.998;2023-09-08T03:33:32;17.24;86.64
35085;SHT85;21267;51.032;6.998;2023-09-08T03:35:59;17.21;86.79
35085;SHT85;21267;51.032;6.998;2023-09-08T03:38:26;17.26;86.54
35085;SHT85;21267;51.032;6.998;2023-09-08T03:40:53;17.15;86.80
35085;SHT85;21267;51.032;6.998;2023-09-08T03:43:20;17.11;86.88
35085;SHT85;21267;51.032;6.998;2023-09-08T03:45:47;17.08;87.04
35085;SHT85;21267;51.032;6.998;2023-09-08T03:48:14;17.04;87.12
35085;SHT85;21267;51.032;6.998;2023-09-08T03:50:41;17.08;87.06
35085;SHT85;21267;51.032;6.998;2023-09-08T03:53:12;17.07;87.05
35085;SHT85;21267;51.032;6.998;2023-09-08T03:55:39;17.00;87.36
35085;SHT85;21267;51.032;6.998;2023-09-08T03:58:06;17.13;87.01
35085;SHT85;21267;51.032;6.998;2023-09-08T04:00:33;17.02;87.25
35085;SHT85;21267;51.032;6.998;2023-09-08T04:03:00;17.02;87.41
35085;SHT85;21267;51.032;6.998;2023-09-08T04:05:27;16.89;87.83
35085;SHT85;21267;51.032;6.998;2023-09-08T04:07:53;16.90;87.91
35085;SHT85;21267;51.032;6.998;2023-09-08T04:10:20;16.92;87.73
35085;SHT85;21267;51.032;6.998;2023-09-08T04:12:47;16.94;87.63
35085;SHT85;21267;51.032;6.998;2023-09-08T04:15:14;16.86;87.94
35085;SHT85;21267;51.032;6.998;2023-09-08T04:17:41;16.94;87.64
35085;SHT85;21267;51.032;6.998;2023-09-08T04:20:08;16.94;87.50
35085;SHT85;21267;51.032;6.998;2023-09-08T04:22:35;16.86;87.62
35085;SHT85;21267;51.032;6.998;2023-09-08T04:25:02;16.93;87.34
35085;SHT85;21267;51.032;6.998;2023-09-08T04:27:29;16.93;87.54
35085;SHT85;21267;51.032;6.998;2023-09-08T04:29:56;16.87;87.41
35085;SHT85;21267;51.032;6.998;2023-09-08T04:32:23;16.80;87.63
35085;SHT85;21267;51.032;6.998;2023-09-08T04:34:50;16.75;87.85
35085;SHT85;21267;51.032;6.998;2023-09-08T04:37:17;16.68;88.15
35085;SHT85;21267;51.032;6.998;2023-09-08T04:39:44;16.71;88.07
35085;SHT85;21267;51.032;6.998;2023-09-08T04:42:10;16.75;87.85
35085;SHT85;21267;51.032;6.998;2023-09-08T04:44:37;16.66;87.99
35085;SHT85;21267;51.032;6.998;2023-09-08T04:47:05;16.69;87.89
35085;SHT85;21267;51.032;6.998;2023-09-08T04:49:32;16.68;88.06
35085;SHT85;21267;51.032;6.998;2023-09-08T04:51:59;16.68;88.24
35085;SHT85;21267;51.032;6.998;2023-09-08T04:54:25;16.92;87.41
35085;SHT85;21267;51.032;6.998;2023-09-08T04:56:54;16.92;87.17
35085;SHT85;21267;51.032;6.998;2023-09-08T04:59:33;17.03;86.83
35085;SHT85;21267;51.032;6.998;2023-09-08T05:02:02;16.92;86.96
35085;SHT85;21267;51.032;6.998;2023-09-08T05:04:29;16.72;87.45
35085;SHT85;21267;51.032;6.998;2023-09-08T05:06:56;16.79;87.33
35085;SHT85;21267;51.032;6.998;2023-09-08T05:09:23;16.76;87.50
35085;SHT85;21267;51.032;6.998;2023-09-08T05:11:50;16.69;87.46
35085;SHT85;21267;51.032;6.998;2023-09-08T05:14:17;16.73;87.45
35085;SHT85;21267;51.032;6.998;2023-09-08T05:16:44;16.72;87.51
35085;SHT85;21267;51.032;6.998;2023-09-08T05:19:17;16.71;87.50
35085;SHT85;21267;51.032;6.998;2023-09-08T05:21:44;16.72;87.36
35085;SHT85;21267;51.032;6.998;2023-09-08T05:24:11;16.68;87.43
35085;SHT85;21267;51.032;6.998;2023-09-08T05:26:38;16.68;87.56
35085;SHT85;21267;51.032;6.998;2023-09-08T05:29:05;16.69;87.53
35085;SHT85;21267;51.032;6.998;2023-09-08T05:31:32;16.72;87.40
35085;SHT85;21267;51.032;6.998;2023-09-08T05:33:59;16.75;87.28
35085;SHT85;21267;51.032;6.998;2023-09-08T05:36:26;16.79;87.30
35085;SHT85;21267;51.032;6.998;2023-09-08T05:38:53;16.90;86.84
35085;SHT85;21267;51.032;6.998;2023-09-08T05:41:20;16.93;86.85
35085;SHT85;21267;51.032;6.998;2023-09-08T05:43:47;17.02;86.77
35085;SHT85;21267;51.032;6.998;2023-09-08T05:46:14;17.10;86.50
35085;SHT85;21267;51.032;6.998;2023-09-08T05:48:42;17.10;86.27
35085;SHT85;21267;51.032;6.998;2023-09-08T05:51:09;17.18;85.78
35085;SHT85;21267;51.032;6.998;2023-09-08T05:53:35;17.18;85.77
35085;SHT85;21267;51.032;6.998;2023-09-08T05:56:04;17.23;85.80
35085;SHT85;21267;51.032;6.998;2023-09-08T05:58:32;17.28;85.60
35085;SHT85;21267;51.032;6.998;2023-09-08T06:01:01;17.30;85.29
35085;SHT85;21267;51.032;6.998;2023-09-08T06:03:29;17.44;85.11
35085;SHT85;21267;51.032;6.998;2023-09-08T06:05:57;17.47;85.00
35085;SHT85;21267;51.032;6.998;2023-09-08T06:08:24;17.58;84.74
35085;SHT85;21267;51.032;6.998;2023-09-08T06:10:51;17.66;84.41
35085;SHT85;21267;51.032;6.998;2023-09-08T06:13:17;17.72;84.13
35085;SHT85;21267;51.032;6.998;2023-09-08T06:15:44;17.79;84.07
35085;SHT85;21267;51.032;6.998;2023-09-08T06:18:11;17.96;83.79
35085;SHT85;21267;51.032;6.998;2023-09-08T06:20:45;18.03;83.18
35085;SHT85;21267;51.032;6.998;2023-09-08T06:23:13;18.10;82.83
35085;SHT85;21267;51.032;6.998;2023-09-08T06:25:40;18.17;82.62
35085;SHT85;21267;51.032;6.998;2023-09-08T06:28:07;18.27;82.27
35085;SHT85;21267;51.032;6.998;2023-09-08T06:33:38;18.44;81.93
35085;SHT85;21267;51.032;6.998;2023-09-08T06:36:06;18.58;81.63
35085;SHT85;21267;51.032;6.998;2023-09-08T06:38:33;18.63;81.67
35085;SHT85;21267;51.032;6.998;2023-09-08T06:41:00;18.88;80.95
35085;SHT85;21267;51.032;6.998;2023-09-08T06:43:27;19.01;80.75
35085;SHT85;21267;51.032;6.998;2023-09-08T06:45:54;19.13;80.12
35085;SHT85;21267;51.032;6.998;2023-09-08T06:48:21;19.26;80.14
35085;SHT85;21267;51.032;6.998;2023-09-08T06:50:48;19.40;79.98
35085;SHT85;21267;51.032;6.998;2023-09-08T06:53:15;19.47;79.75
35085;SHT85;21267;51.032;6.998;2023-09-08T06:55:42;19.50;79.32
35085;SHT85;21267;51.032;6.998;2023-09-08T06:58:11;19.64;79.11
35085;SHT85;21267;51.032;6.998;2023-09-08T07:00:38;19.66;79.12
35085;SHT85;21267;51.032;6.998;2023-09-08T07:03:06;19.67;79.11
35085;SHT85;21267;51.032;6.998;2023-09-08T07:05:35;19.87;78.90
35085;SHT85;21267;51.032;6.998;2023-09-08T07:08:02;20.08;78.28
35085;SHT85;21267;51.032;6.998;2023-09-08T07:10:29;20.26;78.03
35085;SHT85;21267;51.032;6.998;2023-09-08T07:12:56;20.35;77.68
35085;SHT85;21267;51.032;6.998;2023-09-08T07:15:22;20.59;77.23
35085;SHT85;21267;51.032;6.998;2023-09-08T07:17:49;21.10;75.68
35085;SHT85;21267;51.032;6.998;2023-09-08T07:20:16;21.96;73.33
35085;SHT85;21267;51.032;6.998;2023-09-08T07:22:44;22.60;71.61
35085;SHT85;21267;51.032;6.998;2023-09-08T07:25:11;23.15;69.60
35085;SHT85;21267;51.032;6.998;2023-09-08T07:27:38;23.46;69.23
35085;SHT85;21267;51.032;6.998;2023-09-08T07:30:05;24.01;67.82
35085;SHT85;21267;51.032;6.998;2023-09-08T07:32:32;23.84;67.22
35085;SHT85;21267;51.032;6.998;2023-09-08T07:34:59;24.16;66.18
35085;SHT85;21267;51.032;6.998;2023-09-08T07:37:26;23.98;66.73
35085;SHT85;21267;51.032;6.998;2023-09-08T07:39:53;24.16;66.25
35085;SHT85;21267;51.032;6.998;2023-09-08T07:42:20;24.61;65.77
35085;SHT85;21267;51.032;6.998;2023-09-08T07:44:47;24.75;65.40
35085;SHT85;21267;51.032;6.998;2023-09-08T07:47:14;24.97;65.00
35085;SHT85;21267;51.032;6.998;2023-09-08T07:49:45;25.02;64.21
35085;SHT85;21267;51.032;6.998;2023-09-08T07:52:15;25.38;63.62
35085;SHT85;21267;51.032;6.998;2023-09-08T07:54:42;25.17;63.69
35085;SHT85;21267;51.032;6.998;2023-09-08T07:57:11;25.23;63.76
35085;SHT85;21267;51.032;6.998;2023-09-08T07:59:38;25.15;63.86
35085;SHT85;21267;51.032;6.998;2023-09-08T08:02:05;25.37;63.02
35085;SHT85;21267;51.032;6.998;2023-09-08T08:04:32;25.26;62.59
35085;SHT85;21267;51.032;6.998;2023-09-08T08:06:59;25.81;61.44
35085;SHT85;21267;51.032;6.998;2023-09-08T08:09:25;25.73;61.67
35085;SHT85;21267;51.032;6.998;2023-09-08T08:11:52;25.54;62.13
35085;SHT85;21267;51.032;6.998;2023-09-08T08:14:19;25.74;61.84
35085;SHT85;21267;51.032;6.998;2023-09-08T08:16:46;25.81;61.24
35085;SHT85;21267;51.032;6.998;2023-09-08T08:19:13;26.08;60.93
35085;SHT85;21267;51.032;6.998;2023-09-08T08:21:40;26.25;60.24
35085;SHT85;21267;51.032;6.998;2023-09-08T08:24:09;26.74;59.69
35085;SHT85;21267;51.032;6.998;2023-09-08T08:26:37;26.76;59.23
35085;SHT85;21267;51.032;6.998;2023-09-08T08:29:03;26.87;58.89
35085;SHT85;21267;51.032;6.998;2023-09-08T08:31:30;26.50;59.31
35085;SHT85;21267;51.032;6.998;2023-09-08T08:33:57;27.01;58.69
35085;SHT85;21267;51.032;6.998;2023-09-08T08:36:24;27.14;57.70
35085;SHT85;21267;51.032;6.998;2023-09-08T08:38:51;26.50;58.81
35085;SHT85;21267;51.032;6.998;2023-09-08T08:41:18;26.98;57.94
35085;SHT85;21267;51.032;6.998;2023-09-08T08:43:46;27.01;57.83
35085;SHT85;21267;51.032;6.998;2023-09-08T08:46:14;27.14;57.92
35085;SHT85;21267;51.032;6.998;2023-09-08T08:48:42;26.84;57.42
35085;SHT85;21267;51.032;6.998;2023-09-08T08:51:10;27.31;57.39
35085;SHT85;21267;51.032;6.998;2023-09-08T08:53:37;27.53;57.25
35085;SHT85;21267;51.032;6.998;2023-09-08T08:56:06;28.36;55.53
35085;SHT85;21267;51.032;6.998;2023-09-08T08:58:37;27.83;56.16
35085;SHT85;21267;51.032;6.998;2023-09-08T09:01:07;28.54;55.48
35085;SHT85;21267;51.032;6.998;2023-09-08T09:03:34;28.64;54.86
35085;SHT85;21267;51.032;6.998;2023-09-08T09:06:04;28.30;55.10
35085;SHT85;21267;51.032;6.998;2023-09-08T09:08:32;28.31;55.46
35085;SHT85;21267;51.032;6.998;2023-09-08T09:11:00;28.79;55.15
35085;SHT85;21267;51.032;6.998;2023-09-08T09:13:27;28.94;54.66
35085;SHT85;21267;51.032;6.998;2023-09-08T09:15:58;28.82;54.79
35085;SHT85;21267;51.032;6.998;2023-09-08T09:18:26;28.56;55.36
35085;SHT85;21267;51.032;6.998;2023-09-08T09:20:59;29.11;53.28
35085;SHT85;21267;51.032;6.998;2023-09-08T09:23:31;29.00;54.17
35085;SHT85;21267;51.032;6.998;2023-09-08T09:26:00;29.77;53.31
35085;SHT85;21267;51.032;6.998;2023-09-08T09:28:28;29.67;52.76
35085;SHT85;21267;51.032;6.998;2023-09-08T09:30:56;29.80;52.64
35085;SHT85;21267;51.032;6.998;2023-09-08T09:33:23;30.31;52.08
35085;SHT85;21267;51.032;6.998;2023-09-08T09:35:52;29.88;51.78
35085;SHT85;21267;51.032;6.998;2023-09-08T09:38:20;29.43;52.75
35085;SHT85;21267;51.032;6.998;2023-09-08T09:40:48;29.14;53.32
35085;SHT85;21267;51.032;6.998;2023-09-08T09:43:16;30.05;52.61
35085;SHT85;21267;51.032;6.998;2023-09-08T09:45:44;29.74;52.90
35085;SHT85;21267;51.032;6.998;2023-09-08T09:48:11;29.76;52.63
35085;SHT85;21267;51.032;6.998;2023-09-08T09:50:40;30.15;51.87
35085;SHT85;21267;51.032;6.998;2023-09-08T09:53:11;30.41;51.45
35085;SHT85;21267;51.032;6.998;2023-09-08T09:55:42;29.78;51.94
35085;SHT85;21267;51.032;6.998;2023-09-08T09:58:09;30.35;51.64
35085;SHT85;21267;51.032;6.998;2023-09-08T10:00:41;30.22;51.48
35085;SHT85;21267;51.032;6.998;2023-09-08T10:03:13;30.29;51.04
35085;SHT85;21267;51.032;6.998;2023-09-08T10:05:40;30.41;50.92
35085;SHT85;21267;51.032;6.998;2023-09-08T10:08:07;30.79;50.89
35085;SHT85;21267;51.032;6.998;2023-09-08T10:10:34;30.75;50.54
35085;SHT85;21267;51.032;6.998;2023-09-08T10:13:03;30.65;50.44
35085;SHT85;21267;51.032;6.998;2023-09-08T10:15:34;31.74;49.40
35085;SHT85;21267;51.032;6.998;2023-09-08T10:18:05;31.31;49.43
35085;SHT85;21267;51.032;6.998;2023-09-08T10:20:33;31.48;49.33
35085;SHT85;21267;51.032;6.998;2023-09-08T10:23:07;30.84;50.18
35085;SHT85;21267;51.032;6.998;2023-09-08T10:25:43;31.21;50.06
35085;SHT85;21267;51.032;6.998;2023-09-08T10:28:13;31.42;49.98
35085;SHT85;21267;51.032;6.998;2023-09-08T10:30:40;31.64;49.04
35085;SHT85;21267;51.032;6.998;2023-09-08T10:33:08;31.37;49.84
35085;SHT85;21267;51.032;6.998;2023-09-08T10:35:36;31.45;49.46
35085;SHT85;21267;51.032;6.998;2023-09-08T10:38:26;31.51;49.73
35085;SHT85;21267;51.032;6.998;2023-09-08T10:41:25;31.42;49.33
35085;SHT85;21267;51.032;6.998;2023-09-08T10:46:22;31.67;50.02
35085;SHT85;21267;51.032;6.998;2023-09-08T10:48:49;32.25;48.59
35085;SHT85;21267;51.032;6.998;2023-09-08T10:51:17;33.04;47.83
35085;SHT85;21267;51.032;6.998;2023-09-08T10:53:46;33.18;47.49
35085;SHT85;21267;51.032;6.998;2023-09-08T10:56:14;33.00;47.50
35085;SHT85;21267;51.032;6.998;2023-09-08T10:58:49;33.95;46.83
35085;SHT85;21267;51.032;6.998;2023-09-08T11:01:20;33.11;46.93
35085;SHT85;21267;51.032;6.998;2023-09-08T11:03:54;32.90;47.98
35085;SHT85;21267;51.032;6.998;2023-09-08T11:06:22;33.11;47.28
35085;SHT85;21267;51.032;6.998;2023-09-08T11:08:50;33.34;47.16
35085;SHT85;21267;51.032;6.998;2023-09-08T11:11:23;32.86;47.61
35085;SHT85;21267;51.032;6.998;2023-09-08T11:13:50;32.08;48.52
35085;SHT85;21267;51.032;6.998;2023-09-08T11:16:17;32.69;47.84
35085;SHT85;21267;51.032;6.998;2023-09-08T11:18:50;32.90;47.12
35085;SHT85;21267;51.032;6.998;2023-09-08T11:21:17;32.95;48.11
35085;SHT85;21267;51.032;6.998;2023-09-08T11:23:45;32.99;47.57
35085;SHT85;21267;51.032;6.998;2023-09-08T11:26:11;33.38;46.80
35085;SHT85;21267;51.032;6.998;2023-09-08T11:28:41;34.60;44.79
35085;SHT85;21267;51.032;6.998;2023-09-08T11:31:08;34.15;45.77
35085;SHT85;21267;51.032;6.998;2023-09-08T11:33:35;33.62;46.33
35085;SHT85;21267;51.032;6.998;2023-09-08T11:36:13;33.57;46.28
35085;SHT85;21267;51.032;6.998;2023-09-08T11:38:43;34.53;44.97
35085;SHT85;21267;51.032;6.998;2023-09-08T11:41:13;33.57;46.23
35085;SHT85;21267;51.032;6.998;2023-09-08T11:43:40;33.89;46.22
35085;SHT85;21267;51.032;6.998;2023-09-08T11:46:07;33.51;46.59
35085;SHT85;21267;51.032;6.998;2023-09-08T11:48:34;33.71;46.00
35085;SHT85;21267;51.032;6.998;2023-09-08T11:51:08;33.41;46.44
35085;SHT85;21267;51.032;6.998;2023-09-08T11:53:35;34.25;45.10
35085;SHT85;21267;51.032;6.998;2023-09-08T11:56:04;34.74;44.85
35085;SHT85;21267;51.032;6.998;2023-09-08T11:58:31;35.89;43.21
35085;SHT85;21267;51.032;6.998;2023-09-08T12:00:59;35.89;42.18
35085;SHT85;21267;51.032;6.998;2023-09-08T12:03:26;35.21;43.90
35085;SHT85;21267;51.032;6.998;2023-09-08T12:05:53;35.15;44.29
35085;SHT85;21267;51.032;6.998;2023-09-08T12:08:25;34.22;44.96
35085;SHT85;21267;51.032;6.998;2023-09-08T12:10:53;35.79;43.11
35085;SHT85;21267;51.032;6.998;2023-09-08T12:13:23;35.48;43.06
35085;SHT85;21267;51.032;6.998;2023-09-08T12:15:50;34.84;43.94
35085;SHT85;21267;51.032;6.998;2023-09-08T12:18:17;35.39;43.89
35085;SHT85;21267;51.032;6.998;2023-09-08T12:20:45;35.27;43.44
35085;SHT85;21267;51.032;6.998;2023-09-08T12:23:20;35.18;44.27
35085;SHT85;21267;51.032;6.998;2023-09-08T12:25:52;35.37;42.35
35085;SHT85;21267;51.032;6.998;2023-09-08T12:28:20;35.86;42.08
35085;SHT85;21267;51.032;6.998;2023-09-08T12:30:51;35.15;43.14
35085;SHT85;21267;51.032;6.998;2023-09-08T12:33:18;35.48;43.33
35085;SHT85;21267;51.032;6.998;2023-09-08T12:35:48;34.95;44.17
35085;SHT85;21267;51.032;6.998;2023-09-08T12:38:15;34.37;44.67
35085;SHT85;21267;51.032;6.998;2023-09-08T12:40:42;35.03;44.45
35085;SHT85;21267;51.032;6.998;2023-09-08T12:43:08;34.36;44.78
35085;SHT85;21267;51.032;6.998;2023-09-08T12:45:56;34.23;44.64
35085;SHT85;21267;51.032;6.998;2023-09-08T12:48:23;35.17;43.78
35085;SHT85;21267;51.032;6.998;2023-09-08T12:50:50;35.34;43.35
35085;SHT85;21267;51.032;6.998;2023-09-08T12:53:17;35.15;43.66
35085;SHT85;21267;51.032;6.998;2023-09-08T12:55:47;34.60;44.15
35085;SHT85;21267;51.032;6.998;2023-09-08T12:58:14;35.65;42.92
35085;SHT85;21267;51.032;6.998;2023-09-08T13:00:42;35.00;43.71
35085;SHT85;21267;51.032;6.998;2023-09-08T13:03:09;33.92;46.03
35085;SHT85;21267;51.032;6.998;2023-09-08T13:05:37;33.54;45.63
35085;SHT85;21267;51.032;6.998;2023-09-08T13:08:05;34.49;44.49
35085;SHT85;21267;51.032;6.998;2023-09-08T13:10:32;35.49;43.49
35085;SHT85;21267;51.032;6.998;2023-09-08T13:13:00;34.87;43.57
35085;SHT85;21267;51.032;6.998;2023-09-08T13:15:29;35.23;42.68
35085;SHT85;21267;51.032;6.998;2023-09-08T13:17:57;34.64;43.34
35085;SHT85;21267;51.032;6.998;2023-09-08T13:20:24;34.57;44.01
35085;SHT85;21267;51.032;6.998;2023-09-08T13:22:51;34.40;45.14
35085;SHT85;21267;51.032;6.998;2023-09-08T13:25:18;34.56;44.51
35085;SHT85;21267;51.032;6.998;2023-09-08T13:27:45;35.88;41.79
35085;SHT85;21267;51.032;6.998;2023-09-08T13:30:15;36.24;41.57
35085;SHT85;21267;51.032;6.998;2023-09-08T13:32:45;35.78;42.08
35085;SHT85;21267;51.032;6.998;2023-09-08T13:35:12;36.12;41.86
35085;SHT85;21267;51.032;6.998;2023-09-08T13:37:39;36.26;41.48
35085;SHT85;21267;51.032;6.998;2023-09-08T13:40:07;36.06;41.05
35085;SHT85;21267;51.032;6.998;2023-09-08T13:42:35;36.48;40.76
35085;SHT85;21267;51.032;6.998;2023-09-08T13:45:02;36.19;40.60
35085;SHT85;21267;51.032;6.998;2023-09-08T13:47:30;35.65;41.55
35085;SHT85;21267;51.032;6.998;2023-09-08T13:49:58;35.38;41.78
35085;SHT85;21267;51.032;6.998;2023-09-08T13:52:28;35.39;42.13
35085;SHT85;21267;51.032;6.998;2023-09-08T13:54:58;35.21;41.64
35085;SHT85;21267;51.032;6.998;2023-09-08T13:57:29;36.83;39.78
35085;SHT85;21267;51.032;6.998;2023-09-08T13:59:56;36.48;40.21
35085;SHT85;21267;51.032;6.998;2023-09-08T14:02:24;37.15;39.61
35085;SHT85;21267;51.032;6.998;2023-09-08T14:04:54;37.11;39.24
35085;SHT85;21267;51.032;6.998;2023-09-08T14:07:27;37.45;39.37
35085;SHT85;21267;51.032;6.998;2023-09-08T14:10:03;37.42;39.18
35085;SHT85;21267;51.032;6.998;2023-09-08T14:12:36;36.13;41.17
35085;SHT85;21267;51.032;6.998;2023-09-08T14:15:04;37.01;39.82
35085;SHT85;21267;51.032;6.998;2023-09-08T14:17:31;36.61;39.72
35085;SHT85;21267;51.032;6.998;2023-09-08T14:19:58;37.14;38.54
35085;SHT85;21267;51.032;6.998;2023-09-08T14:22:25;36.74;39.09
35085;SHT85;21267;51.032;6.998;2023-09-08T14:24:53;37.83;38.38
35085;SHT85;21267;51.032;6.998;2023-09-08T14:27:20;37.05;39.05
35085;SHT85;21267;51.032;6.998;2023-09-08T14:29:47;35.89;40.57
35085;SHT85;21267;51.032;6.998;2023-09-08T14:32:13;37.18;38.67
35085;SHT85;21267;51.032;6.998;2023-09-08T14:34:40;36.46;39.75
35085;SHT85;21267;51.032;6.998;2023-09-08T14:37:07;36.99;38.71
35085;SHT85;21267;51.032;6.998;2023-09-08T14:39:37;37.21;38.82
35085;SHT85;21267;51.032;6.998;2023-09-08T14:42:04;36.12;40.65
35085;SHT85;21267;51.032;6.998;2023-09-08T14:44:32;34.74;41.95
35085;SHT85;21267;51.032;6.998;2023-09-08T14:46:59;34.52;42.42
35085;SHT85;21267;51.032;6.998;2023-09-08T14:49:26;35.89;40.90
35085;SHT85;21267;51.032;6.998;2023-09-08T14:51:53;35.41;41.81
35085;SHT85;21267;51.032;6.998;2023-09-08T14:54:20;35.24;41.54
35085;SHT85;21267;51.032;6.998;2023-09-08T14:56:46;35.69;40.81
35085;SHT85;21267;51.032;6.998;2023-09-08T14:59:13;36.60;39.47
35085;SHT85;21267;51.032;6.998;2023-09-08T15:01:40;36.41;39.97
35085;SHT85;21267;51.032;6.998;2023-09-08T15:04:10;37.14;38.99
35085;SHT85;21267;51.032;6.998;2023-09-08T15:06:37;37.82;38.01
35085;SHT85;21267;51.032;6.998;2023-09-08T15:09:04;37.63;37.78
35085;SHT85;21267;51.032;6.998;2023-09-08T15:11:31;37.17;38.19
35085;SHT85;21267;51.032;6.998;2023-09-08T15:13:58;37.76;37.84
35085;SHT85;21267;51.032;6.998;2023-09-08T15:16:25;37.29;38.66
35085;SHT85;21267;51.032;6.998;2023-09-08T15:18:52;35.68;41.05
35085;SHT85;21267;51.032;6.998;2023-09-08T15:21:24;37.22;38.56
35085;SHT85;21267;51.032;6.998;2023-09-08T15:23:54;36.74;39.72
35085;SHT85;21267;51.032;6.998;2023-09-08T15:26:21;37.42;38.57
35085;SHT85;21267;51.032;6.998;2023-09-08T15:28:47;37.26;39.24
35085;SHT85;21267;51.032;6.998;2023-09-08T15:31:17;35.59;41.75
35085;SHT85;21267;51.032;6.998;2023-09-08T15:33:45;35.28;42.73
35085;SHT85;21267;51.032;6.998;2023-09-08T15:36:12;36.06;42.29
35085;SHT85;21267;51.032;6.998;2023-09-08T15:38:40;36.40;41.04
35085;SHT85;21267;51.032;6.998;2023-09-08T15:43:40;36.24;41.31
35085;SHT85;21267;51.032;6.998;2023-09-08T15:46:07;35.04;43.20